createdAt,value
2018-04-26T00:01:43.578Z,65.79
2018-04-26T00:04:11.949Z,65.99
2018-04-26T00:06:40.281Z,68.42
2018-04-26T00:09:08.618Z,67.49
2018-04-26T00:11:36.992Z,66.51
2018-04-26T00:14:05.290Z,65.71
2018-04-26T00:16:33.641Z,65.03
2018-04-26T00:19:01.959Z,67.00
2018-04-26T00:21:30.296Z,65.94
2018-04-26T00:23:58.678Z,66.40
2018-04-26T00:26:27.050Z,64.98
2018-04-26T00:28:55.475Z,65.34
2018-04-26T00:31:23.912Z,66.54
2018-04-26T00:33:52.234Z,65.83
2018-04-26T00:36:20.570Z,66.98
2018-04-26T00:38:48.941Z,68.17
2018-04-26T00:41:17.254Z,66.84
2018-04-26T00:43:45.695Z,65.74
2018-04-26T00:46:14.009Z,64.84
2018-04-26T00:48:42.351Z,68.99
2018-04-26T00:51:10.734Z,65.48
2018-04-26T00:53:39.101Z,65.58
2018-04-26T00:56:07.421Z,64.61
2018-04-26T00:58:35.767Z,64.67
2018-04-26T01:01:04.151Z,64.91
2018-04-26T01:03:32.529Z,64.49
2018-04-26T01:06:00.846Z,64.65
2018-04-26T01:08:29.348Z,65.46
2018-04-26T01:10:57.665Z,65.13
2018-04-26T01:13:26.034Z,64.14
2018-04-26T01:15:54.418Z,63.61
2018-04-26T01:18:22.729Z,65.46
2018-04-26T01:20:51.062Z,65.28
2018-04-26T01:23:20.289Z,64.68
2018-04-26T01:25:48.626Z,65.38
2018-04-26T01:28:17.837Z,63.95
2018-04-26T01:30:46.217Z,64.69
2018-04-26T01:33:14.539Z,65.23
2018-04-26T01:35:42.964Z,64.32
2018-04-26T01:38:11.277Z,64.59
2018-04-26T01:40:39.658Z,63.79
2018-04-26T01:43:08.017Z,63.92
2018-04-26T01:45:36.359Z,64.54
2018-04-26T01:48:04.667Z,64.21
2018-04-26T01:50:33.009Z,65.66
2018-04-26T01:53:02.254Z,65.35
2018-04-26T01:55:30.565Z,65.85
2018-04-26T01:57:58.970Z,65.99
2018-04-26T02:00:28.244Z,64.97
2018-04-26T02:02:56.599Z,64.98
2018-04-26T02:05:24.907Z,66.31
2018-04-26T02:07:53.344Z,65.10
2018-04-26T02:10:22.582Z,65.37
2018-04-26T02:12:51.016Z,65.88
2018-04-26T02:15:19.380Z,66.12
2018-04-26T02:17:47.762Z,65.44
2018-04-26T02:20:16.143Z,65.96
2018-04-26T02:22:44.517Z,65.83
2018-04-26T02:25:12.835Z,66.50
2018-04-26T02:27:41.167Z,65.14
2018-04-26T02:30:09.479Z,64.34
2018-04-26T02:32:37.816Z,64.43
2018-04-26T02:35:06.136Z,64.24
2018-04-26T02:37:34.489Z,64.99
2018-04-26T02:40:02.808Z,65.41
2018-04-26T02:42:31.156Z,65.57
2018-04-26T02:44:59.596Z,65.67
2018-04-26T02:47:27.999Z,65.57
2018-04-26T02:49:56.382Z,64.36
2018-04-26T02:52:24.765Z,64.17
2018-04-26T02:54:53.142Z,63.04
2018-04-26T02:57:21.441Z,63.01
2018-04-26T02:59:49.769Z,62.53
2018-04-26T03:02:18.083Z,62.05
2018-04-26T03:04:46.467Z,62.67
2018-04-26T03:07:14.766Z,62.46
2018-04-26T03:09:43.200Z,61.87
2018-04-26T03:12:11.652Z,62.24
2018-04-26T03:14:39.980Z,62.33
2018-04-26T03:17:08.308Z,62.58
2018-04-26T03:19:36.716Z,62.58
2018-04-26T03:22:05.093Z,63.17
2018-04-26T03:24:33.505Z,63.34
2018-04-26T03:27:01.821Z,63.33
2018-04-26T03:29:31.182Z,63.00
2018-04-26T03:31:59.490Z,62.91
2018-04-26T03:34:27.841Z,63.16
2018-04-26T03:36:56.157Z,61.28
2018-04-26T03:39:24.483Z,62.90
2018-04-26T03:41:52.829Z,63.48
2018-04-26T03:44:21.213Z,63.09
2018-04-26T03:46:49.580Z,63.56
2018-04-26T03:49:17.900Z,62.48
2018-04-26T03:51:46.228Z,61.90
2018-04-26T03:54:14.563Z,59.32
2018-04-26T03:56:42.900Z,57.80
2018-04-26T03:59:11.272Z,56.95
2018-04-26T04:01:51.296Z,56.86
2018-04-26T04:04:31.381Z,56.83
2018-04-26T04:06:59.733Z,55.60
2018-04-26T04:09:28.047Z,55.68
2018-04-26T04:11:56.461Z,56.02
2018-04-26T04:14:24.831Z,55.52
2018-04-26T04:16:53.168Z,54.56
2018-04-26T04:19:21.533Z,54.79
2018-04-26T04:21:49.876Z,53.05
2018-04-26T04:24:18.373Z,52.72
2018-04-26T04:26:46.596Z,52.72
2018-04-26T04:29:14.937Z,52.23
2018-04-26T04:31:43.337Z,52.90
2018-04-26T04:34:11.678Z,53.38
2018-04-26T04:36:40.032Z,54.22
2018-04-26T04:39:08.368Z,55.11
2018-04-26T04:41:36.691Z,53.34
2018-04-26T04:44:05.035Z,50.78
2018-04-26T04:46:33.357Z,49.52
2018-04-26T04:49:01.769Z,49.26
2018-04-26T04:51:30.087Z,49.75
2018-04-26T04:53:58.413Z,50.48
2018-04-26T04:56:26.923Z,50.52
2018-04-26T04:58:55.331Z,51.41
2018-04-26T05:01:23.634Z,51.27
2018-04-26T05:03:52.004Z,51.71
2018-04-26T05:06:20.364Z,51.70
2018-04-26T05:08:48.742Z,51.07
2018-04-26T05:11:17.077Z,51.85
2018-04-26T05:13:45.424Z,51.57
2018-04-26T05:16:13.740Z,52.07
2018-04-26T05:18:42.104Z,53.29
2018-04-26T05:21:10.483Z,53.14
2018-04-26T05:23:38.806Z,53.33
2018-04-26T05:26:07.238Z,55.04
2018-04-26T05:28:35.541Z,55.34
2018-04-26T05:31:03.978Z,56.67
2018-04-26T05:33:32.290Z,58.06
2018-04-26T05:36:00.699Z,58.91
2018-04-26T05:38:29.029Z,58.72
2018-04-26T05:40:57.389Z,59.60
2018-04-26T05:43:25.717Z,59.28
2018-04-26T05:45:54.054Z,59.87
2018-04-26T05:48:22.368Z,61.06
2018-04-26T05:50:50.747Z,60.42
2018-04-26T05:53:19.125Z,61.00
2018-04-26T05:55:47.521Z,62.13
2018-04-26T05:58:15.794Z,60.87
2018-04-26T06:00:44.125Z,61.29
2018-04-26T06:03:12.433Z,60.92
2018-04-26T06:05:40.781Z,61.95
2018-04-26T06:08:09.168Z,62.15
2018-04-26T06:10:37.482Z,63.61
2018-04-26T06:13:05.864Z,62.99
2018-04-26T06:15:34.238Z,63.82
2018-04-26T06:18:02.565Z,65.31
2018-04-26T06:20:30.955Z,65.68
2018-04-26T06:22:59.386Z,65.26
2018-04-26T06:25:27.714Z,63.94
2018-04-26T06:27:56.060Z,64.46
2018-04-26T06:30:24.415Z,65.17
2018-04-26T06:32:52.749Z,65.01
2018-04-26T06:35:21.138Z,65.49
2018-04-26T06:37:49.470Z,65.15
2018-04-26T06:40:17.893Z,65.79
2018-04-26T06:42:46.230Z,64.95
2018-04-26T06:45:14.553Z,64.90
2018-04-26T06:47:43.029Z,63.74
2018-04-26T06:50:11.286Z,63.58
2018-04-26T06:52:39.656Z,64.60
2018-04-26T06:55:07.976Z,63.46
2018-04-26T06:57:36.294Z,65.29
2018-04-26T07:00:04.620Z,65.85
2018-04-26T07:02:33.005Z,64.62
2018-04-26T07:05:01.373Z,63.98
2018-04-26T07:07:29.696Z,63.09
2018-04-26T07:09:58.020Z,63.86
2018-04-26T07:12:26.343Z,64.71
2018-04-26T07:14:54.769Z,65.29
2018-04-26T07:17:23.154Z,64.62
2018-04-26T07:19:51.489Z,64.69
2018-04-26T07:22:19.833Z,64.90
2018-04-26T07:24:48.173Z,63.95
2018-04-26T07:27:16.490Z,63.50
2018-04-26T07:29:44.824Z,64.81
2018-04-26T07:32:13.148Z,63.75
2018-04-26T07:34:41.588Z,62.85
2018-04-26T07:37:09.914Z,62.58
2018-04-26T07:39:38.245Z,62.46
2018-04-26T07:42:06.561Z,63.53
2018-04-26T07:44:35.003Z,63.69
2018-04-26T07:47:03.313Z,63.79
2018-04-26T07:49:31.613Z,63.49
2018-04-26T07:52:00.080Z,63.32
2018-04-26T07:54:28.381Z,62.14
2018-04-26T07:56:56.798Z,62.41
2018-04-26T07:59:25.153Z,61.44
2018-04-26T08:01:53.688Z,61.55
2018-04-26T08:04:21.856Z,62.67
2018-04-26T08:06:50.242Z,62.44
2018-04-26T08:09:18.574Z,62.42
2018-04-26T08:11:46.999Z,62.29
2018-04-26T08:14:15.336Z,61.21
2018-04-26T08:16:43.674Z,62.80
2018-04-26T08:19:11.986Z,61.34
2018-04-26T08:21:40.362Z,60.64
2018-04-26T08:24:08.789Z,61.10
2018-04-26T08:26:37.117Z,60.68
2018-04-26T08:29:05.433Z,61.34
2018-04-26T08:31:33.777Z,62.58
2018-04-26T08:34:02.162Z,61.41
2018-04-26T08:36:30.535Z,61.23
2018-04-26T08:38:58.877Z,60.39
2018-04-26T08:41:27.230Z,61.44
2018-04-26T08:43:55.564Z,60.70
2018-04-26T08:46:23.948Z,61.30
2018-04-26T08:48:52.326Z,61.45
2018-04-26T08:51:20.639Z,60.92
2018-04-26T08:53:48.980Z,60.70
2018-04-26T08:56:17.437Z,59.01
2018-04-26T08:58:45.698Z,57.69
2018-04-26T09:01:14.017Z,58.03
2018-04-26T09:03:42.357Z,58.26
2018-04-26T09:06:10.707Z,57.50
2018-04-26T09:08:39.084Z,59.10
2018-04-26T09:11:07.400Z,57.19
2018-04-26T09:13:35.757Z,58.69
2018-04-26T09:16:04.087Z,56.52
2018-04-26T09:18:32.462Z,56.19
2018-04-26T09:21:00.802Z,56.84
2018-04-26T09:23:29.225Z,57.07
2018-04-26T09:25:57.564Z,57.92
2018-04-26T09:28:25.877Z,59.42
2018-04-26T09:30:54.285Z,57.62
2018-04-26T09:33:22.586Z,58.63
2018-04-26T09:35:50.921Z,58.60
2018-04-26T09:38:19.237Z,59.46
2018-04-26T09:40:47.597Z,60.47
2018-04-26T09:43:15.902Z,59.94
2018-04-26T09:45:44.209Z,59.79
2018-04-26T09:48:12.541Z,59.12
2018-04-26T09:50:40.904Z,59.79
2018-04-26T09:53:09.225Z,59.50
2018-04-26T09:55:37.548Z,58.71
2018-04-26T09:58:05.937Z,58.75
2018-04-26T10:00:34.303Z,59.01
2018-04-26T10:03:12.242Z,59.54
2018-04-26T10:05:41.337Z,57.43
2018-04-26T10:08:09.763Z,57.17
2018-04-26T10:10:38.116Z,58.46
2018-04-26T10:13:06.518Z,57.53
2018-04-26T10:15:34.883Z,57.17
2018-04-26T10:18:03.216Z,57.50
2018-04-26T10:20:31.538Z,58.22
2018-04-26T10:22:59.929Z,57.92
2018-04-26T10:25:28.295Z,56.84
2018-04-26T10:27:56.667Z,56.96
2018-04-26T10:30:25.075Z,57.07
2018-04-26T10:32:53.424Z,55.67
2018-04-26T10:35:21.747Z,55.44
2018-04-26T10:37:50.049Z,55.90
2018-04-26T10:40:18.371Z,55.83
2018-04-26T10:42:46.686Z,56.81
2018-04-26T10:45:15.014Z,55.61
2018-04-26T10:47:43.582Z,57.04
2018-04-26T10:50:11.983Z,55.78
2018-04-26T10:52:40.293Z,56.49
2018-04-26T10:55:08.610Z,55.83
2018-04-26T10:57:36.936Z,55.96
2018-04-26T11:00:05.337Z,55.84
2018-04-26T11:02:33.601Z,56.51
2018-04-26T11:05:01.916Z,57.09
2018-04-26T11:07:30.225Z,56.81
2018-04-26T11:09:58.598Z,57.09
2018-04-26T11:12:27.796Z,55.57
2018-04-26T11:14:56.107Z,57.07
2018-04-26T11:17:24.445Z,56.95
2018-04-26T11:19:52.762Z,56.56
2018-04-26T11:22:21.069Z,56.35
2018-04-26T11:24:49.485Z,56.47
2018-04-26T11:27:17.804Z,56.30
2018-04-26T11:29:46.173Z,56.15
2018-04-26T11:32:14.512Z,56.24
2018-04-26T11:34:42.889Z,55.79
2018-04-26T11:37:11.285Z,55.16
2018-04-26T11:39:39.782Z,54.83
2018-04-26T11:42:08.137Z,54.70
2018-04-26T11:44:36.537Z,53.79
2018-04-26T11:47:04.884Z,52.90
2018-04-26T11:49:33.193Z,52.69
2018-04-26T11:52:01.533Z,53.30
2018-04-26T11:54:29.913Z,54.10
2018-04-26T11:56:58.231Z,54.66
2018-04-26T11:59:26.544Z,55.44
2018-04-26T12:01:54.872Z,54.43
2018-04-26T12:04:23.201Z,54.33
2018-04-26T12:06:51.512Z,54.26
2018-04-26T12:09:19.860Z,53.86
2018-04-26T12:11:48.300Z,53.91
2018-04-26T12:14:16.652Z,52.71
2018-04-26T12:16:45.002Z,53.12
2018-04-26T12:19:13.332Z,52.68
2018-04-26T12:21:41.674Z,54.54
2018-04-26T12:24:10.050Z,53.72
2018-04-26T12:26:38.369Z,52.41
2018-04-26T12:29:06.693Z,52.57
2018-04-26T12:31:35.066Z,52.39
2018-04-26T12:34:03.459Z,52.43
2018-04-26T12:36:31.785Z,51.61
2018-04-26T12:39:00.097Z,51.08
2018-04-26T12:41:28.489Z,49.63
2018-04-26T12:43:56.810Z,50.96
2018-04-26T12:46:25.132Z,50.93
2018-04-26T12:48:53.520Z,50.63
2018-04-26T12:51:21.839Z,49.83
2018-04-26T12:53:50.162Z,49.11
2018-04-26T12:56:18.481Z,48.66
2018-04-26T12:58:46.829Z,48.43
2018-04-26T13:01:15.164Z,49.19
2018-04-26T13:03:43.473Z,49.63
2018-04-26T13:06:11.803Z,49.44
2018-04-26T13:08:40.131Z,49.58
2018-04-26T13:11:08.428Z,50.12
2018-04-26T13:13:36.810Z,49.56
2018-04-26T13:16:05.170Z,49.74
2018-04-26T13:18:33.492Z,49.14
2018-04-26T13:21:01.814Z,49.21
2018-04-26T13:23:30.145Z,48.71
2018-04-26T13:25:59.473Z,46.68
2018-04-26T13:28:27.765Z,45.03
2018-04-26T13:30:56.162Z,46.25
2018-04-26T13:33:24.474Z,45.94
2018-04-26T13:35:52.784Z,46.87
2018-04-26T13:38:21.596Z,46.48
2018-04-26T13:40:49.908Z,46.77
2018-04-26T13:43:18.220Z,46.52
2018-04-26T13:45:46.654Z,45.67
2018-04-26T13:48:14.974Z,46.25
2018-04-26T13:50:43.290Z,47.37
2018-04-26T13:53:11.705Z,46.16
2018-04-26T13:55:40.006Z,47.03
2018-04-26T13:58:08.317Z,47.18
2018-04-26T14:00:36.704Z,46.88
2018-04-26T14:03:05.021Z,46.76
2018-04-26T14:05:33.460Z,47.81
2018-04-26T14:08:01.828Z,47.30
2018-04-26T14:10:30.253Z,47.39
2018-04-26T14:12:58.630Z,46.92
2018-04-26T14:15:26.973Z,46.29
2018-04-26T14:17:55.300Z,46.31
2018-04-26T14:20:23.615Z,46.91
2018-04-26T14:22:51.994Z,46.84
2018-04-26T14:25:20.381Z,46.70
2018-04-26T14:27:48.704Z,46.28
2018-04-26T14:30:17.033Z,46.49
2018-04-26T14:32:45.340Z,46.58
2018-04-26T14:35:13.690Z,45.28
2018-04-26T14:37:42.187Z,45.40
2018-04-26T14:40:10.453Z,45.64
2018-04-26T14:42:38.821Z,43.40
2018-04-26T14:45:07.154Z,44.35
2018-04-26T14:47:35.465Z,44.54
2018-04-26T14:50:03.787Z,43.54
2018-04-26T14:52:32.140Z,43.14
2018-04-26T14:55:00.439Z,42.99
2018-04-26T14:57:28.741Z,43.74
2018-04-26T14:59:57.073Z,44.75
2018-04-26T15:02:25.428Z,44.61
2018-04-26T15:04:53.834Z,44.06
2018-04-26T15:07:22.161Z,43.20
2018-04-26T15:09:50.599Z,39.29
2018-04-26T15:12:18.923Z,42.02
2018-04-26T15:14:47.255Z,39.88
2018-04-26T15:17:15.556Z,38.11
2018-04-26T15:19:43.929Z,42.68
2018-04-26T15:22:12.244Z,43.78
2018-04-26T15:24:40.553Z,43.95
2018-04-26T15:27:08.913Z,43.88
2018-04-26T15:29:37.289Z,43.32
2018-04-26T15:32:05.610Z,42.71
2018-04-26T15:34:33.917Z,38.11
2018-04-26T15:37:02.265Z,40.95
2018-04-26T15:39:30.598Z,39.87
2018-04-26T15:41:58.913Z,34.46
2018-04-26T15:44:27.259Z,32.24
2018-04-26T15:46:55.642Z,32.92
2018-04-26T15:49:23.951Z,33.21
2018-04-26T15:51:52.294Z,38.95
2018-04-26T15:54:32.483Z,39.04
2018-04-26T15:57:21.383Z,38.08
2018-04-26T16:00:01.629Z,33.10
2018-04-26T16:02:57.674Z,35.71
2018-04-26T16:05:37.799Z,38.46
2018-04-26T16:08:23.752Z,38.90
2018-04-26T16:11:09.781Z,39.80
2018-04-26T16:13:55.793Z,42.06
2018-04-26T16:16:41.911Z,42.15
2018-04-26T16:22:41.185Z,45.33
2018-04-26T16:25:22.132Z,45.52
2018-04-26T16:27:59.124Z,44.26
2018-04-26T16:30:39.297Z,46.16
2018-04-26T16:33:19.590Z,46.56
2018-04-26T16:39:02.490Z,46.33
2018-04-26T16:41:30.814Z,46.05
2018-04-26T16:43:59.122Z,46.89
2018-04-26T16:46:27.436Z,39.66
2018-04-26T16:48:55.759Z,40.41
2018-04-26T16:51:24.081Z,43.91
2018-04-26T16:53:52.385Z,41.45
2018-04-26T16:56:20.730Z,43.07
2018-04-26T16:58:49.096Z,44.69
2018-04-26T17:01:17.397Z,45.00
2018-04-26T17:03:45.711Z,46.50
2018-04-26T17:06:14.009Z,46.29
2018-04-26T17:08:42.328Z,46.95
2018-04-26T17:11:11.652Z,48.26
2018-04-26T17:13:39.963Z,46.93
2018-04-26T17:16:08.282Z,48.46
2018-04-26T17:18:36.733Z,48.92
2018-04-26T17:21:05.075Z,48.50
2018-04-26T17:23:33.350Z,48.99
2018-04-26T17:26:01.677Z,48.45
2018-04-26T17:28:29.984Z,48.74
2018-04-26T17:30:58.390Z,49.92
2018-04-26T17:33:26.769Z,50.30
2018-04-26T17:35:55.141Z,50.44
2018-04-26T17:38:23.451Z,51.13
2018-04-26T17:40:51.784Z,51.11
2018-04-26T17:43:20.171Z,51.41
2018-04-26T17:45:48.540Z,52.01
2018-04-26T17:48:16.872Z,51.47
2018-04-26T17:50:45.174Z,50.20
2018-04-26T17:53:13.524Z,49.09
2018-04-26T17:55:41.863Z,48.82
2018-04-26T17:58:10.280Z,49.52
2018-04-26T18:00:38.557Z,49.60
2018-04-26T18:03:06.871Z,50.30
2018-04-26T18:05:35.187Z,51.25
2018-04-26T18:08:03.547Z,51.91
2018-04-26T18:10:31.870Z,52.51
2018-04-26T18:13:00.187Z,52.66
2018-04-26T18:15:28.513Z,53.34
2018-04-26T18:17:56.824Z,53.72
2018-04-26T18:20:25.156Z,53.67
2018-04-26T18:22:53.546Z,53.89
2018-04-26T18:25:21.853Z,54.03
2018-04-26T18:27:50.174Z,54.65
2018-04-26T18:30:18.483Z,54.67
2018-04-26T18:32:46.855Z,54.79
2018-04-26T18:35:15.193Z,54.60
2018-04-26T18:37:43.953Z,54.95
2018-04-26T18:40:12.353Z,55.19
2018-04-26T18:42:40.670Z,55.24
2018-04-26T18:45:09.119Z,55.36
2018-04-26T18:47:37.493Z,55.98
2018-04-26T18:50:05.805Z,55.83
2018-04-26T18:52:34.141Z,55.90
2018-04-26T18:55:02.567Z,55.40
2018-04-26T18:57:30.905Z,55.59
2018-04-26T18:59:59.206Z,55.07
2018-04-26T19:02:27.558Z,56.26
2018-04-26T19:04:55.874Z,55.72
2018-04-26T19:07:24.170Z,55.75
2018-04-26T19:09:52.501Z,56.17
2018-04-26T19:12:20.807Z,54.92
2018-04-26T19:14:49.122Z,55.21
2018-04-26T19:17:17.450Z,56.17
2018-04-26T19:19:45.808Z,56.24
2018-04-26T19:22:14.187Z,55.66
2018-04-26T19:24:42.510Z,55.66
2018-04-26T19:27:10.814Z,56.03
2018-04-26T19:29:39.158Z,55.83
2018-04-26T19:32:07.498Z,55.94
2018-04-26T19:34:35.804Z,55.97
2018-04-26T19:37:04.117Z,55.07
2018-04-26T19:39:32.521Z,55.49
2018-04-26T19:42:00.837Z,56.13
2018-04-26T19:44:29.174Z,55.89
2018-04-26T19:46:57.514Z,56.02
2018-04-26T19:49:25.875Z,55.43
2018-04-26T19:51:54.129Z,55.98
2018-04-26T19:54:22.524Z,55.81
2018-04-26T19:56:50.864Z,55.53
2018-04-26T19:59:19.246Z,55.32
2018-04-26T20:01:47.666Z,55.38
2018-04-26T20:04:15.992Z,54.87
2018-04-26T20:06:44.318Z,55.24
2018-04-26T20:09:12.704Z,55.20
2018-04-26T20:11:41.034Z,55.82
2018-04-26T20:14:09.444Z,56.33
2018-04-26T20:16:37.828Z,56.79
2018-04-26T20:19:06.135Z,56.46
2018-04-26T20:21:34.436Z,56.89
2018-04-26T20:24:02.861Z,57.57
2018-04-26T20:26:31.160Z,57.24
2018-04-26T20:28:59.465Z,57.79
2018-04-26T20:31:27.788Z,57.79
2018-04-26T20:33:56.137Z,60.62
2018-04-26T20:36:24.433Z,57.30
2018-04-26T20:38:52.756Z,57.94
2018-04-26T20:41:21.123Z,59.56
2018-04-26T20:43:49.406Z,59.34
2018-04-26T20:46:17.753Z,59.62
2018-04-26T20:48:46.072Z,58.82
2018-04-26T20:51:14.397Z,58.56
2018-04-26T20:53:42.730Z,58.42
2018-04-26T20:56:11.049Z,59.15
2018-04-26T20:58:39.359Z,57.32
2018-04-26T21:01:07.773Z,57.99
2018-04-26T21:03:36.154Z,59.27
2018-04-26T21:06:04.453Z,59.42
2018-04-26T21:08:32.781Z,60.34
2018-04-26T21:11:01.085Z,60.43
2018-04-26T21:13:29.461Z,60.76
2018-04-26T21:15:57.790Z,60.69
2018-04-26T21:18:26.111Z,60.53
2018-04-26T21:20:54.431Z,60.48
2018-04-26T21:23:22.768Z,61.52
2018-04-26T21:25:51.118Z,61.69
2018-04-26T21:28:19.530Z,62.05
2018-04-26T21:30:47.870Z,62.50
2018-04-26T21:33:16.182Z,62.72
2018-04-26T21:35:44.526Z,62.80
2018-04-26T21:38:12.828Z,62.80
2018-04-26T21:40:41.141Z,62.99
2018-04-26T21:43:09.485Z,63.38
2018-04-26T21:45:37.965Z,63.77
2018-04-26T21:48:06.343Z,64.37
2018-04-26T21:50:40.117Z,64.32
2018-04-26T21:53:13.981Z,64.12
2018-04-26T21:55:48.029Z,64.52
2018-04-26T21:58:21.989Z,64.99
2018-04-26T22:00:55.985Z,64.43
2018-04-26T22:06:24.019Z,64.73
2018-04-26T22:08:52.363Z,64.10
2018-04-26T22:11:20.738Z,65.23
2018-04-26T22:13:49.080Z,66.10
2018-04-26T22:16:17.513Z,66.26
2018-04-26T22:18:45.838Z,65.82
2018-04-26T22:21:14.252Z,66.54
2018-04-26T22:23:42.576Z,66.68
2018-04-26T22:26:10.887Z,67.28
2018-04-26T22:28:39.219Z,67.75
2018-04-26T22:31:07.545Z,67.34
2018-04-26T22:33:35.865Z,68.06
2018-04-26T22:36:04.195Z,67.99
2018-04-26T22:38:32.585Z,67.67
2018-04-26T22:41:00.971Z,68.63
2018-04-26T22:43:29.348Z,69.18
2018-04-26T22:45:57.668Z,69.04
2018-04-26T22:48:25.976Z,69.22
2018-04-26T22:50:54.371Z,69.07
2018-04-26T22:53:22.683Z,68.39
2018-04-26T22:55:51.041Z,68.74
2018-04-26T22:58:19.372Z,67.67
2018-04-26T23:00:47.689Z,67.39
2018-04-26T23:03:16.010Z,66.57
2018-04-26T23:05:44.317Z,67.01
2018-04-26T23:08:12.621Z,66.66
2018-04-26T23:10:40.932Z,67.17
2018-04-26T23:13:09.246Z,66.77
2018-04-26T23:15:37.693Z,66.70
2018-04-26T23:18:06.025Z,66.19
2018-04-26T23:20:34.514Z,66.07
2018-04-26T23:23:02.887Z,66.08
2018-04-26T23:25:31.306Z,65.73
2018-04-26T23:27:59.610Z,65.98
2018-04-26T23:30:27.909Z,65.94
2018-04-26T23:32:56.294Z,65.72
2018-04-26T23:35:24.682Z,65.81
2018-04-26T23:37:52.977Z,65.69
2018-04-26T23:40:21.277Z,65.48
2018-04-26T23:42:49.599Z,66.06
2018-04-26T23:45:17.901Z,66.43
2018-04-26T23:47:46.217Z,65.86
2018-04-26T23:50:14.534Z,65.79
2018-04-26T23:52:42.833Z,65.76
2018-04-26T23:55:11.133Z,66.03
2018-04-26T23:57:39.457Z,65.93
